Time;durP1;ratioP1;P1;durP2;ratioP2;P2;SDS_P1;SDS_P2;PMS_P1;PMS_P2;Temp;Humidity;BMP_temperature;BMP_pressure;BME280_temperature;BME280_humidity;BME280_pressure;Samples;Min_cycle;Max_cycle;Signal;HPM_P1;HPM_P2
2022/09/03 00:02:32;;;;;;;1.67;1.13;;;23.80;80.70;;;;;;10497935;28;20264;-86
2022/09/03 00:08:03;;;;;;;4.03;1.73;;;23.70;81.00;;;;;;10504801;28;20570;-86
2022/09/03 00:13:08;;;;;;;2.53;1.50;;;23.60;79.40;;;;;;10528772;28;20331;-86
2022/09/03 00:18:21;;;;;;;2.65;1.60;;;23.60;79.50;;;;;;10510909;28;20266;-86
2022/09/03 00:23:29;;;;;;;1.98;1.65;;;23.60;79.60;;;;;;10523000;28;20702;-86
2022/09/03 00:28:41;;;;;;;2.17;1.60;;;23.60;79.90;;;;;;10498410;28;20255;-86
2022/09/03 00:33:46;;;;;;;2.03;1.60;;;23.50;80.20;;;;;;10518014;28;20243;-86
2022/09/03 00:38:49;;;;;;;2.20;1.20;;;23.50;80.60;;;;;;10555833;28;20353;-86
2022/09/03 00:44:27;;;;;;;1.48;1.35;;;23.50;80.90;;;;;;10536056;28;20217;-86
2022/09/03 00:49:59;;;;;;;3.47;1.70;;;23.50;81.20;;;;;;10499501;28;20210;-86
2022/09/03 00:55:11;;;;;;;2.97;1.55;;;23.50;81.40;;;;;;10540635;28;20911;-85
2022/09/03 01:00:18;;;;;;;1.77;1.23;;;23.50;81.70;;;;;;10522693;28;20260;-86
2022/09/03 01:05:53;;;;;;;2.65;1.40;;;23.40;82.00;;;;;;10516137;28;20272;-86
2022/09/03 01:11:21;;;;;;;1.83;1.35;;;23.40;82.30;;;;;;10521606;28;20209;-86
2022/09/03 01:16:43;;;;;;;1.90;1.02;;;23.40;82.50;;;;;;10541305;28;20197;-86
2022/09/03 01:22:04;;;;;;;3.75;1.50;;;23.40;82.90;;;;;;10523746;28;20636;-86
2022/09/03 01:27:42;;;;;;;2.10;1.10;;;23.40;83.10;;;;;;10514213;28;20209;-86
2022/09/03 01:33:03;;;;;;;2.67;1.52;;;23.30;83.50;;;;;;10560464;28;20181;-86
2022/09/03 01:38:33;;;;;;;1.42;1.15;;;23.30;83.70;;;;;;10584927;28;20237;-86
2022/09/03 01:43:57;;;;;;;1.40;1.13;;;23.30;84.00;;;;;;10577946;28;20233;-86
2022/09/03 01:49:15;;;;;;;1.27;1.00;;;23.30;84.40;;;;;;10573061;28;20212;-87
2022/09/03 01:54:46;;;;;;;1.88;1.50;;;23.20;84.60;;;;;;10550707;28;20193;-86
2022/09/03 02:00:12;;;;;;;2.20;1.30;;;23.20;84.80;;;;;;10574026;28;20194;-86
2022/09/03 02:05:23;;;;;;;1.85;1.40;;;23.20;85.10;;;;;;10562543;28;20236;-86
2022/09/03 02:10:39;;;;;;;2.22;1.50;;;23.20;85.30;;;;;;10573217;28;20219;-86
2022/09/03 02:15:45;;;;;;;1.92;1.40;;;23.20;85.60;;;;;;10589634;28;20195;-86
2022/09/03 02:20:51;;;;;;;1.70;1.42;;;23.10;86.00;;;;;;10573988;28;20185;-86
2022/09/03 02:25:59;;;;;;;4.18;1.58;;;23.10;86.20;;;;;;10591329;28;20213;-86
2022/09/03 02:31:01;;;;;;;2.03;1.55;;;23.10;86.50;;;;;;10564444;28;20198;-86
2022/09/03 02:36:07;;;;;;;1.40;1.30;;;23.10;86.50;;;;;;10591874;28;20213;-86
2022/09/03 02:41:12;;;;;;;2.00;1.23;;;23.10;86.70;;;;;;10560199;28;20198;-86
2022/09/03 02:46:23;;;;;;;1.42;1.13;;;23.10;87.00;;;;;;10557964;28;20235;-86
2022/09/03 02:51:25;;;;;;;1.80;1.40;;;23.10;87.10;;;;;;10590325;28;20182;-86
2022/09/03 02:56:28;;;;;;;1.30;1.10;;;23.10;87.30;;;;;;10579593;28;20208;-86
2022/09/03 03:01:31;;;;;;;2.50;1.63;;;23.00;87.50;;;;;;10553457;28;20198;-86
2022/09/03 03:06:36;;;;;;;2.75;1.40;;;23.00;87.70;;;;;;10538106;28;20304;-86
2022/09/03 03:11:39;;;;;;;2.22;1.65;;;23.00;87.90;;;;;;10552933;28;20182;-86
2022/09/03 03:16:42;;;;;;;1.02;0.93;;;22.90;88.00;;;;;;10557756;28;20183;-86
2022/09/03 03:21:45;;;;;;;1.60;1.30;;;22.90;88.20;;;;;;10575817;28;20201;-86
2022/09/03 03:26:48;;;;;;;1.92;1.27;;;23.00;88.30;;;;;;10552207;28;20213;-86
2022/09/03 03:31:51;;;;;;;1.35;1.23;;;22.90;88.40;;;;;;10547109;28;20174;-85
2022/09/03 03:36:54;;;;;;;1.80;1.20;;;22.90;88.50;;;;;;10570807;28;20217;-86
2022/09/03 03:41:57;;;;;;;1.20;1.10;;;22.90;88.80;;;;;;10570185;28;20181;-86
2022/09/03 03:46:59;;;;;;;1.80;1.30;;;22.90;89.00;;;;;;10551412;28;20202;-86
2022/09/03 03:52:04;;;;;;;1.80;1.58;;;22.90;89.10;;;;;;10535281;28;20193;-86
2022/09/03 03:57:07;;;;;;;2.00;1.27;;;22.90;89.30;;;;;;10521864;28;20302;-86
2022/09/03 04:02:09;;;;;;;2.72;1.40;;;22.80;89.30;;;;;;10512951;28;20520;-86
2022/09/03 04:07:12;;;;;;;2.30;1.20;;;22.80;89.20;;;;;;10522481;28;20218;-86
2022/09/03 04:12:15;;;;;;;2.78;1.25;;;22.90;89.40;;;;;;10540031;28;20194;-86
2022/09/03 04:17:17;;;;;;;2.10;1.42;;;22.90;89.50;;;;;;10518821;28;20267;-86
2022/09/03 04:22:28;;;;;;;1.15;1.00;;;22.70;89.70;;;;;;10541869;28;20624;-86
2022/09/03 04:27:30;;;;;;;2.00;1.45;;;22.80;90.00;;;;;;10521074;28;20221;-86
2022/09/03 04:37:54;;;;;;;2.45;1.45;;;22.80;89.80;;;;;;10508529;28;20286;-86
2022/09/03 04:42:58;;;;;;;1.40;1.10;;;22.80;89.80;;;;;;10521691;28;20648;-86
2022/09/03 04:48:04;;;;;;;2.28;1.40;;;22.80;89.80;;;;;;10522313;28;20193;-86
2022/09/03 04:53:06;;;;;;;1.20;1.10;;;22.70;89.90;;;;;;10514242;28;20205;-86
2022/09/03 04:58:09;;;;;;;2.30;1.20;;;22.70;90.00;;;;;;10537625;28;20221;-86
2022/09/03 05:03:12;;;;;;;1.65;1.40;;;22.80;90.00;;;;;;10534307;28;20217;-86
2022/09/03 05:08:14;;;;;;;2.17;1.55;;;22.70;90.00;;;;;;10538480;28;20554;-86
2022/09/03 05:13:16;;;;;;;1.50;1.15;;;22.70;90.10;;;;;;10519008;28;20279;-86
2022/09/03 05:18:19;;;;;;;1.08;0.95;;;22.70;90.10;;;;;;10519806;28;20201;-86
2022/09/03 05:23:22;;;;;;;2.70;1.38;;;22.70;90.10;;;;;;10520955;28;20669;-86
2022/09/03 05:28:29;;;;;;;1.70;1.55;;;22.70;90.20;;;;;;10518617;28;20678;-86
2022/09/03 05:33:41;;;;;;;2.08;1.60;;;22.70;90.20;;;;;;10520166;28;20194;-86
2022/09/03 05:38:44;;;;;;;1.83;1.63;;;22.70;90.40;;;;;;10535192;28;20787;-85
2022/09/03 05:43:54;;;;;;;1.42;1.33;;;22.70;90.20;;;;;;10558175;28;20217;-85
2022/09/03 05:48:59;;;;;;;2.22;1.08;;;22.70;90.30;;;;;;10535573;28;20202;-86
2022/09/03 05:54:02;;;;;;;1.67;1.40;;;22.70;90.30;;;;;;10534846;28;20985;-86
2022/09/03 05:59:08;;;;;;;2.00;1.10;;;22.70;90.30;;;;;;10510655;28;20202;-86
2022/09/03 06:04:12;;;;;;;1.88;1.48;;;22.70;90.50;;;;;;10504264;28;20223;-86
2022/09/03 06:09:18;;;;;;;2.25;1.38;;;22.70;90.60;;;;;;10498313;28;20198;-86
2022/09/03 06:14:22;;;;;;;1.38;1.10;;;22.70;90.50;;;;;;10505936;28;20241;-86
2022/09/03 06:19:24;;;;;;;1.83;1.40;;;22.70;90.60;;;;;;10538477;28;20310;-86
2022/09/03 06:24:28;;;;;;;1.58;1.30;;;22.70;90.50;;;;;;10477016;28;20299;-86
2022/09/03 06:29:31;;;;;;;1.33;1.20;;;22.70;90.70;;;;;;10512367;28;20206;-86
2022/09/03 06:34:33;;;;;;;1.40;1.30;;;22.70;91.00;;;;;;10528055;28;20248;-85
2022/09/03 06:39:36;;;;;;;3.30;1.30;;;22.70;90.80;;;;;;10498522;28;20290;-85
2022/09/03 06:44:38;;;;;;;1.25;1.10;;;22.80;90.70;;;;;;10515717;28;20256;-85
2022/09/03 06:49:41;;;;;;;1.10;1.00;;;22.70;89.90;;;;;;10526216;28;20271;-86
2022/09/03 06:54:44;;;;;;;1.27;1.10;;;22.70;90.80;;;;;;10516609;28;20205;-86
2022/09/03 06:59:48;;;;;;;1.60;1.30;;;22.80;90.70;;;;;;10508167;28;20240;-86
2022/09/03 07:04:50;;;;;;;1.75;1.45;;;22.90;90.60;;;;;;10500447;28;20249;-86
2022/09/03 07:09:55;;;;;;;5.75;1.35;;;22.90;90.30;;;;;;10529978;28;20226;-86
2022/09/03 07:14:57;;;;;;;2.22;1.50;;;22.90;90.30;;;;;;10518059;28;20677;-85
2022/09/03 07:20:01;;;;;;;2.47;1.00;;;22.90;90.30;;;;;;10502402;28;20237;-87
2022/09/03 07:25:04;;;;;;;1.70;1.10;;;22.90;90.20;;;;;;10517164;28;20636;-87
2022/09/03 07:30:09;;;;;;;1.40;1.05;;;23.00;90.10;;;;;;10507022;28;20255;-86
2022/09/03 07:35:14;;;;;;;3.20;1.10;;;22.60;90.40;;;;;;10494680;28;20238;-87
2022/09/03 07:40:18;;;;;;;1.42;1.30;;;23.00;90.20;;;;;;10530887;28;20221;-87
2022/09/03 07:45:22;;;;;;;1.30;1.20;;;23.10;89.70;;;;;;10510474;28;20286;-86
2022/09/03 07:50:25;;;;;;;1.10;1.00;;;23.10;89.10;;;;;;10513853;28;20287;-86
2022/09/03 07:55:27;;;;;;;1.80;1.45;;;23.10;89.50;;;;;;10512571;28;20201;-86
2022/09/03 08:00:32;;;;;;;1.52;1.40;;;23.30;93.80;;;;;;10490129;28;20228;-87
2022/09/03 08:05:36;;;;;;;1.83;1.10;;;23.50;94.60;;;;;;10514166;28;20784;-86
2022/09/03 08:10:39;;;;;;;3.50;1.30;;;23.50;95.70;;;;;;10504855;28;20251;-86
2022/09/03 08:15:41;;;;;;;1.73;1.00;;;23.60;95.00;;;;;;10504428;28;20568;-86
2022/09/03 08:20:44;;;;;;;1.67;1.35;;;23.60;97.20;;;;;;10506098;28;20578;-86
2022/09/03 08:25:47;;;;;;;2.95;1.25;;;23.80;97.30;;;;;;10503589;28;20309;-86
2022/09/03 08:30:49;;;;;;;1.80;1.20;;;23.80;97.60;;;;;;10513722;28;20222;-86
2022/09/03 08:35:53;;;;;;;1.98;1.15;;;23.20;98.60;;;;;;10506853;28;20721;-86
2022/09/03 08:41:03;;;;;;;1.27;0.90;;;23.40;99.00;;;;;;10513805;28;20270;-86
2022/09/03 08:46:07;;;;;;;1.25;0.95;;;22.90;91.50;;;;;;10517299;28;20249;-85
2022/09/03 08:51:11;;;;;;;1.65;1.00;;;23.40;90.60;;;;;;10495058;28;20619;-86
2022/09/03 08:56:25;;;;;;;5.18;1.13;;;23.60;98.30;;;;;;10473391;28;20238;-86
2022/09/03 09:01:43;;;;;;;4.80;1.17;;;23.40;96.50;;;;;;10495187;28;20249;-86
2022/09/03 09:06:57;;;;;;;1.38;1.10;;;23.80;95.30;;;;;;10509283;28;20310;-86
2022/09/03 09:12:11;;;;;;;1.63;0.85;;;24.00;93.90;;;;;;10508068;28;20298;-85
2022/09/03 09:17:26;;;;;;;3.08;1.05;;;24.00;92.70;;;;;;10510155;28;20279;-86
2022/09/03 09:22:37;;;;;;;1.20;0.80;;;23.20;94.00;;;;;;10490289;28;20350;-86
2022/09/03 09:28:14;;;;;;;5.45;1.65;;;23.90;91.60;;;;;;10516394;28;20254;-85
2022/09/03 09:33:19;;;;;;;3.38;1.15;;;23.70;82.00;;;;;;10500033;28;20684;-88
2022/09/03 09:38:36;;;;;;;2.30;0.77;;;24.00;90.00;;;;;;10517605;28;20257;-86
2022/09/03 09:43:39;;;;;;;3.13;0.90;;;24.00;91.60;;;;;;10507941;28;20232;-87
2022/09/03 09:48:56;;;;;;;3.90;1.13;;;22.50;78.60;;;;;;10512866;28;20245;-87
2022/09/03 09:54:03;;;;;;;6.75;0.80;;;22.30;70.20;;;;;;10506878;28;20217;-86
2022/09/03 09:59:14;;;;;;;3.30;0.88;;;22.40;72.20;;;;;;10527567;28;20268;-89
2022/09/03 10:04:29;;;;;;;4.28;0.88;;;22.60;67.90;;;;;;10519255;28;20245;-91
2022/09/03 10:09:34;;;;;;;1.17;0.77;;;22.80;71.10;;;;;;10521865;28;20189;-92
2022/09/03 10:14:44;;;;;;;7.18;0.98;;;23.10;70.00;;;;;;10520169;28;20217;-92
2022/09/03 10:20:29;;;;;;;2.55;0.63;;;23.20;64.70;;;;;;10520292;28;20620;-91
2022/09/03 10:25:52;;;;;;;2.30;0.80;;;23.60;66.30;;;;;;10519543;28;20217;-91
2022/09/03 10:31:14;;;;;;;2.95;0.70;;;23.70;70.10;;;;;;10519413;28;20201;-93
2022/09/03 10:36:19;;;;;;;3.13;0.60;;;24.00;62.00;;;;;;10503035;28;20229;-93
2022/09/03 10:41:41;;;;;;;1.35;0.75;;;24.00;69.90;;;;;;10519014;28;20206;-91
2022/09/03 10:47:11;;;;;;;1.38;0.70;;;24.00;70.80;;;;;;10520705;28;20245;-91
2022/09/03 10:52:19;;;;;;;2.20;0.70;;;24.00;70.30;;;;;;10502312;28;20201;-92
2022/09/03 10:57:45;;;;;;;1.10;0.80;;;24.20;69.60;;;;;;10518660;28;20266;-92
2022/09/03 11:03:17;;;;;;;1.75;0.82;;;24.30;65.40;;;;;;10501946;28;20266;-91
2022/09/03 11:08:35;;;;;;;0.57;0.50;;;24.30;66.10;;;;;;10517777;28;20628;-92
2022/09/03 11:14:06;;;;;;;1.75;0.70;;;24.00;65.40;;;;;;10518318;28;20278;-92
2022/09/03 11:19:15;;;;;;;1.63;0.70;;;24.00;71.60;;;;;;10517190;28;20709;-92
2022/09/03 11:24:24;;;;;;;1.85;0.95;;;24.40;70.10;;;;;;10517554;28;20201;-91
2022/09/03 11:29:36;;;;;;;2.60;0.88;;;24.10;68.30;;;;;;10517955;28;20190;-92
2022/09/03 11:34:50;;;;;;;2.45;0.70;;;24.30;66.10;;;;;;10516877;28;20209;-93
2022/09/03 11:40:04;;;;;;;1.52;0.93;;;24.30;70.30;;;;;;10500516;28;20256;-93
2022/09/03 11:45:35;;;;;;;2.92;0.80;;;24.10;66.90;;;;;;10517191;28;20225;-93
2022/09/03 11:50:37;;;;;;;4.90;1.02;;;24.10;58.60;;;;;;10514489;28;20197;-91
2022/09/03 11:56:01;;;;;;;1.48;0.90;;;23.80;70.30;;;;;;10516914;28;20602;-92
2022/09/03 12:01:21;;;;;;;0.70;0.55;;;23.70;65.30;;;;;;10516584;28;20229;-91
2022/09/03 12:06:32;;;;;;;1.42;0.60;;;23.90;66.80;;;;;;10516395;28;20249;-91
2022/09/03 12:12:00;;;;;;;4.10;0.60;;;23.90;68.30;;;;;;10499335;28;20232;-91
2022/09/03 12:17:12;;;;;;;3.53;0.60;;;23.80;73.10;;;;;;10500187;28;20209;-92
2022/09/03 12:22:18;;;;;;;1.65;0.40;;;23.70;68.10;;;;;;10516526;28;20221;-93
2022/09/03 12:27:26;;;;;;;3.40;0.90;;;23.40;75.50;;;;;;10514655;28;20264;-91
2022/09/03 12:32:38;;;;;;;2.38;0.60;;;23.40;69.10;;;;;;10498386;28;20232;-91
2022/09/03 12:37:44;;;;;;;6.72;1.45;;;23.10;77.70;;;;;;10533654;28;20306;-94
2022/09/03 12:43:15;;;;;;;1.63;0.70;;;23.10;78.00;;;;;;10500534;28;20210;-91
2022/09/03 12:48:38;;;;;;;3.08;0.70;;;23.10;77.40;;;;;;10506203;28;20261;-92
2022/09/03 12:53:46;;;;;;;0.77;0.73;;;23.10;77.00;;;;;;10524255;28;20221;-92
2022/09/03 12:59:00;;;;;;;0.65;0.55;;;23.20;76.70;;;;;;10523371;28;20278;-93
2022/09/03 13:04:11;;;;;;;0.95;0.80;;;23.20;79.40;;;;;;10522053;28;20266;-92
2022/09/03 13:09:15;;;;;;;1.83;0.80;;;23.30;78.40;;;;;;10505581;28;20346;-92
2022/09/03 13:14:18;;;;;;;1.52;0.75;;;23.20;77.60;;;;;;10522352;28;20206;-91
2022/09/03 13:19:49;;;;;;;1.20;0.70;;;23.20;72.40;;;;;;10521913;28;20252;-93
2022/09/03 13:25:01;;;;;;;1.35;0.82;;;23.30;79.60;;;;;;10522279;28;20913;-93
2022/09/03 13:30:16;;;;;;;1.25;0.60;;;23.20;75.80;;;;;;10521177;28;20259;-93
2022/09/03 13:35:37;;;;;;;0.80;0.77;;;23.20;76.40;;;;;;10515935;28;20260;-92
2022/09/03 13:40:57;;;;;;;3.75;0.90;;;23.20;72.40;;;;;;10521597;28;20270;-93
2022/09/03 13:46:06;;;;;;;1.60;0.73;;;23.40;76.90;;;;;;10504984;28;20252;-93
2022/09/03 13:51:55;;;;;;;1.58;0.80;;;23.20;63.10;;;;;;10505180;28;20197;-91
2022/09/03 13:57:15;;;;;;;1.85;0.93;;;23.20;76.20;;;;;;10521429;28;20286;-91
2022/09/03 14:02:44;;;;;;;2.78;0.70;;;23.40;74.40;;;;;;10504958;28;20610;-92
2022/09/03 14:07:47;;;;;;;2.65;0.80;;;23.60;75.90;;;;;;10504374;28;20229;-91
2022/09/03 14:13:40;;;;;;;1.50;0.80;;;23.50;72.70;;;;;;10504505;28;20603;-92
2022/09/03 14:18:55;;;;;;;3.63;0.77;;;23.60;70.60;;;;;;10356892;28;20387;-92
2022/09/03 14:24:15;;;;;;;1.35;0.60;;;23.40;71.80;;;;;;10368450;28;20286;-91
2022/09/03 14:29:22;;;;;;;1.35;0.50;;;23.60;75.30;;;;;;10367325;28;20309;-91
2022/09/03 14:34:52;;;;;;;5.63;0.68;;;23.70;74.10;;;;;;10367791;28;20266;-93
2022/09/03 14:40:00;;;;;;;0.75;0.65;;;23.60;73.10;;;;;;10334575;28;20228;-91
2022/09/03 14:45:41;;;;;;;3.08;0.85;;;23.60;75.30;;;;;;10334943;28;20708;-93
2022/09/03 14:51:08;;;;;;;2.90;0.60;;;23.50;75.30;;;;;;10375091;28;20293;-90
2022/09/03 14:56:32;;;;;;;0.75;0.60;;;23.60;74.50;;;;;;10436137;28;20242;-94
2022/09/03 15:01:36;;;;;;;3.67;0.82;;;23.70;71.90;;;;;;10485737;28;20269;-92
2022/09/03 15:07:04;;;;;;;2.78;0.70;;;23.70;70.50;;;;;;10494230;28;20241;-91
2022/09/03 15:12:27;;;;;;;1.10;0.68;;;23.70;74.20;;;;;;10475910;28;20244;-91
2022/09/03 15:18:07;;;;;;;1.05;0.60;;;23.80;70.90;;;;;;10493817;28;20198;-93
2022/09/03 15:23:23;;;;;;;0.95;0.65;;;23.80;73.80;;;;;;10493449;28;20221;-92
2022/09/03 15:28:47;;;;;;;0.80;0.65;;;23.70;74.60;;;;;;10492770;28;20264;-91
2022/09/03 15:34:02;;;;;;;22.03;3.07;;;23.70;75.00;;;;;;9865231;28;10001783;-90
2022/09/03 15:39:20;;;;;;;2.90;0.88;;;23.40;60.20;;;;;;10477814;28;20708;-91
2022/09/03 15:44:26;;;;;;;3.58;0.82;;;22.20;57.10;;;;;;10477789;28;20283;-92
2022/09/03 15:50:01;;;;;;;2.63;1.42;;;22.90;54.80;;;;;;10479134;28;20304;-91
2022/09/03 15:55:11;;;;;;;3.47;1.63;;;23.40;63.30;;;;;;10451572;28;20673;-90
2022/09/03 16:00:21;;;;;;;1.67;1.00;;;23.70;63.20;;;;;;10455779;28;20230;-91
2022/09/03 16:05:49;;;;;;;2.38;0.82;;;24.00;53.00;;;;;;10430972;28;20616;-92
2022/09/03 16:10:53;;;;;;;2.38;1.08;;;23.00;66.90;;;;;;10436620;28;20237;-90
2022/09/03 16:16:06;;;;;;;1.80;0.90;;;22.10;64.20;;;;;;10453748;28;20241;-90
2022/09/03 16:21:30;;;;;;;11.18;1.83;;;22.00;60.70;;;;;;10470288;28;20237;-90
2022/09/03 16:26:49;;;;;;;2.20;1.38;;;22.10;72.80;;;;;;10466996;28;20261;-90
2022/09/03 16:32:55;;;;;;;7.05;1.65;;;22.60;75.00;;;;;;10469528;28;20230;-90
2022/09/03 16:38:21;;;;;;;2.10;1.08;;;22.30;72.90;;;;;;10279191;28;20344;-91
2022/09/03 16:43:42;;;;;;;6.03;1.90;;;23.40;70.60;;;;;;10239952;28;20265;-91
2022/09/03 16:48:59;;;;;;;2.10;1.23;;;23.10;72.00;;;;;;10242425;28;20254;-92
2022/09/03 16:54:06;;;;;;;8.27;2.47;;;;;;;;;;10281790;28;20244;-91
2022/09/03 16:59:11;;;;;;;8.23;1.85;;;21.80;80.50;;;;;;9911011;28;10000560;-90
2022/09/03 17:04:45;;;;;;;9.25;2.70;;;21.20;80.50;;;;;;10277725;28;20694;-90
2022/09/03 17:09:50;;;;;;;7.55;2.55;;;21.50;87.20;;;;;;10487671;28;20298;-91
2022/09/03 17:15:25;;;;;;;11.48;1.80;;;22.50;65.50;;;;;;10472863;28;20267;-91
2022/09/03 17:21:09;;;;;;;14.88;2.75;;;22.50;61.30;;;;;;10489575;28;20244;-91
2022/09/03 17:26:16;;;;;;;2.35;1.63;;;21.80;70.30;;;;;;10492033;28;20313;-90
2022/09/03 17:31:49;;;;;;;5.18;1.63;;;21.60;68.70;;;;;;10454120;28;20231;-91
2022/09/03 17:37:22;;;;;;;10.43;2.17;;;21.40;64.60;;;;;;10497282;28;20292;-90
2022/09/03 17:42:25;;;;;;;5.70;2.50;;;22.10;76.00;;;;;;10517322;28;20241;-90
2022/09/03 17:47:52;;;;;;;3.20;2.15;;;20.10;72.40;;;;;;10475052;28;20313;-90
2022/09/03 17:53:25;;;;;;;6.72;2.25;;;19.60;75.00;;;;;;10478615;28;20238;-90
2022/09/03 17:58:40;;;;;;;3.67;1.60;;;20.30;89.00;;;;;;10475860;28;20683;-91
2022/09/03 18:03:53;;;;;;;5.22;1.75;;;20.20;93.90;;;;;;10473033;28;20229;-89
2022/09/03 18:09:07;;;;;;;14.00;3.17;;;19.80;83.60;;;;;;10492260;28;20702;-91
2022/09/03 18:14:36;;;;;;;6.53;2.25;;;18.20;83.10;;;;;;10493352;28;20971;-89
2022/09/03 20:12:26;;;;;;;6.53;1.90;;;17.40;98.70;;;;;;10467440;28;20421;-89
2022/09/03 20:17:47;;;;;;;5.85;1.85;;;17.90;99.20;;;;;;10453713;28;20234;-89
2022/09/03 20:22:58;;;;;;;3.03;1.30;;;18.20;99.00;;;;;;10480506;28;20279;-89
2022/09/03 20:28:20;;;;;;;2.83;1.30;;;18.80;96.00;;;;;;10460515;28;20258;-90
2022/09/03 20:33:42;;;;;;;4.40;1.10;;;18.40;94.50;;;;;;10431317;28;20286;-90
2022/09/03 20:39:01;;;;;;;1.67;0.90;;;17.10;93.10;;;;;;10454318;28;20253;-88
2022/09/03 20:44:35;;;;;;;2.93;1.10;;;15.20;99.90;;;;;;10482948;28;20620;-89
2022/09/03 20:50:09;;;;;;;6.03;1.30;;;14.70;99.90;;;;;;10300293;28;20319;-90
2022/09/03 20:55:20;;;;;;;5.03;1.20;;;15.80;99.90;;;;;;10280837;28;20229;-89
2022/09/03 21:00:23;;;;;;;2.43;1.30;;;14.30;99.90;;;;;;10301480;28;20837;-89
2022/09/03 21:05:36;;;;;;;2.43;1.20;;;13.70;99.90;;;;;;10314774;28;20286;-90
2022/09/03 21:11:10;;;;;;;3.27;1.10;;;13.40;99.90;;;;;;10295291;28;20323;-89
2022/09/03 21:16:31;;;;;;;3.73;1.07;;;13.50;99.90;;;;;;10311124;28;20228;-90
2022/09/03 21:22:07;;;;;;;2.70;1.50;;;13.20;99.90;;;;;;10329791;28;20344;-89
2022/09/03 21:27:13;;;;;;;6.50;1.10;;;;;;;;;;10439372;28;20295;-88
2022/09/03 21:32:20;;;;;;;3.53;1.43;;;13.00;99.90;;;;;;10448653;28;20287;-90
2022/09/03 21:37:24;;;;;;;1.50;1.30;;;13.20;99.90;;;;;;10468280;28;20258;-90
2022/09/03 21:42:38;;;;;;;2.80;1.40;;;13.10;99.90;;;;;;10456801;28;20243;-89
2022/09/03 21:47:46;;;;;;;1.53;1.30;;;13.20;99.90;;;;;;10465257;28;20312;-89
2022/09/03 21:53:21;;;;;;;2.20;1.30;;;13.50;99.90;;;;;;10448125;28;20276;-90
2022/09/03 21:58:36;;;;;;;3.93;1.10;;;13.80;99.90;;;;;;10432627;28;20247;-89
2022/09/03 22:03:40;;;;;;;3.40;1.40;;;13.80;99.90;;;;;;10461735;28;20226;-90
2022/09/03 22:08:57;;;;;;;1.67;0.90;;;13.70;99.90;;;;;;10487002;28;20249;-89
2022/09/03 22:14:11;;;;;;;6.70;1.00;;;13.80;99.90;;;;;;10455881;28;20256;-89
2022/09/03 22:19:14;;;;;;;3.17;1.20;;;13.60;99.90;;;;;;10456842;28;20242;-89
2022/09/03 22:24:24;;;;;;;3.87;1.00;;;13.80;99.90;;;;;;10447527;28;20235;-90
2022/09/03 22:29:45;;;;;;;2.57;1.63;;;14.10;99.90;;;;;;10461919;28;20300;-89
2022/09/03 22:34:54;;;;;;;1.50;1.10;;;14.00;99.90;;;;;;10457524;28;20657;-89
2022/09/03 22:40:24;;;;;;;9.13;1.50;;;14.10;99.90;;;;;;10469529;28;20226;-90
2022/09/03 22:45:39;;;;;;;1.03;0.73;;;13.90;99.90;;;;;;10486129;28;20210;-90
2022/09/03 22:50:52;;;;;;;2.57;1.10;;;13.80;99.90;;;;;;10463123;28;20709;-90
2022/09/03 22:56:07;;;;;;;1.90;1.37;;;13.70;99.90;;;;;;10459375;28;20679;-89
2022/09/03 23:01:17;;;;;;;2.00;1.13;;;13.60;99.90;;;;;;10471627;28;20206;-88
2022/09/03 23:06:32;;;;;;;5.07;1.37;;;13.50;99.90;;;;;;10465719;28;20225;-89
2022/09/03 23:11:56;;;;;;;7.63;1.50;;;13.50;99.90;;;;;;10437589;28;20287;-88
2022/09/03 23:17:13;;;;;;;2.30;1.40;;;13.50;99.90;;;;;;10465663;28;20231;-89
2022/09/03 23:22:37;;;;;;;1.53;1.10;;;13.50;99.90;;;;;;10483355;28;20351;-89
2022/09/03 23:27:46;;;;;;;2.57;1.60;;;13.40;99.90;;;;;;10454651;28;20718;-89
2022/09/03 23:32:54;;;;;;;2.80;1.30;;;13.50;99.90;;;;;;10459819;28;20841;-88
2022/09/03 23:38:14;;;;;;;2.70;1.57;;;13.40;99.90;;;;;;10469094;28;20287;-90
2022/09/03 23:43:50;;;;;;;2.20;1.77;;;13.40;99.90;;;;;;10469590;28;20234;-89
2022/09/03 23:48:53;;;;;;;3.93;1.43;;;13.40;99.90;;;;;;10457730;28;20290;-90
2022/09/03 23:54:04;;;;;;;5.90;1.70;;;13.40;99.90;;;;;;10438104;28;20263;-90
2022/09/03 23:59:27;;;;;;;4.73;1.90;;;13.40;99.90;;;;;;10446796;28;20291;-89
